Time;durP1;ratioP1;P1;durP2;ratioP2;P2;SDS_P1;SDS_P2;PMS_P1;PMS_P2;Temp;Humidity;BMP_temperature;BMP_pressure;BME280_temperature;BME280_humidity;BME280_pressure;Samples;Min_cycle;Max_cycle;Signal;HPM_P1;HPM_P2
2021/01/08 00:01:46;;;;;;;0.43;0.43;;;3.20;99.90;;;;;;4843521;29;20238;-90
2021/01/08 00:04:12;;;;;;;0.40;0.40;;;3.10;99.90;;;;;;4846876;29;20599;-91
2021/01/08 00:06:38;;;;;;;0.97;0.97;;;3.10;99.90;;;;;;4842841;29;20270;-91
2021/01/08 00:09:05;;;;;;;0.47;0.47;;;3.10;99.90;;;;;;4858959;29;20260;-90
2021/01/08 00:11:35;;;;;;;3.00;1.10;;;3.10;99.90;;;;;;4844653;29;20189;-90
2021/01/08 00:14:04;;;;;;;1.30;1.07;;;3.20;99.90;;;;;;4829436;29;20224;-91
2021/01/08 00:16:34;;;;;;;0.37;0.37;;;3.20;99.90;;;;;;4841787;29;20247;-91
2021/01/08 00:19:00;;;;;;;0.43;0.43;;;3.20;99.90;;;;;;4845076;29;20230;-91
2021/01/08 00:21:37;;;;;;;2.97;0.30;;;3.20;99.90;;;;;;4828103;29;20240;-90
2021/01/08 00:24:04;;;;;;;0.40;0.40;;;3.30;99.90;;;;;;4844038;29;20322;-91
2021/01/08 00:26:30;;;;;;;0.57;0.57;;;3.30;99.90;;;;;;4830181;29;20730;-92
2021/01/08 00:28:56;;;;;;;0.20;0.20;;;3.20;99.90;;;;;;4830116;29;20710;-90
2021/01/08 00:31:22;;;;;;;0.47;0.47;;;3.20;99.90;;;;;;4827961;29;20235;-90
2021/01/08 00:33:47;;;;;;;0.30;0.30;;;3.10;99.90;;;;;;4842735;29;20235;-91
2021/01/08 00:36:13;;;;;;;0.30;0.30;;;3.00;99.90;;;;;;4842925;29;20212;-91
2021/01/08 00:38:39;;;;;;;0.20;0.20;;;3.10;99.90;;;;;;4829760;29;20244;-90
2021/01/08 00:41:04;;;;;;;0.53;0.30;;;3.10;99.90;;;;;;4844435;29;21377;-91
2021/01/08 00:43:30;;;;;;;0.40;0.40;;;3.10;99.90;;;;;;4842966;29;20225;-90
2021/01/08 00:45:56;;;;;;;0.20;0.20;;;3.10;99.90;;;;;;4829337;29;20229;-90
2021/01/08 00:48:22;;;;;;;0.27;0.27;;;3.10;99.90;;;;;;4811413;29;20243;-91
2021/01/08 00:50:47;;;;;;;0.83;0.67;;;3.00;99.90;;;;;;4845460;29;20196;-89
2021/01/08 00:53:13;;;;;;;0.60;0.60;;;3.00;99.90;;;;;;4815218;29;20573;-92
2021/01/08 00:55:39;;;;;;;0.53;0.30;;;3.10;99.90;;;;;;4828880;29;20312;-91
2021/01/08 00:58:04;;;;;;;0.70;0.67;;;3.10;99.90;;;;;;4828442;29;20232;-91
2021/01/08 01:00:30;;;;;;;0.40;0.40;;;3.00;99.90;;;;;;4844728;29;20303;-91
2021/01/08 01:02:56;;;;;;;0.73;0.60;;;3.00;99.90;;;;;;4829126;29;21074;-90
2021/01/08 01:05:22;;;;;;;0.20;0.20;;;3.00;99.90;;;;;;4829181;29;20185;-91
2021/01/08 01:07:49;;;;;;;0.37;0.37;;;3.00;99.90;;;;;;4824231;29;20232;-90
2021/01/08 01:10:15;;;;;;;0.10;0.10;;;2.90;99.90;;;;;;4857770;29;20650;-90
2021/01/08 01:12:40;;;;;;;0.30;0.30;;;2.90;99.90;;;;;;4842645;29;20224;-90
2021/01/08 01:15:07;;;;;;;0.43;0.43;;;2.80;99.90;;;;;;4829197;29;20597;-90
2021/01/08 01:17:37;;;;;;;0.20;0.20;;;2.80;99.90;;;;;;4843336;29;20224;-90
2021/01/08 01:20:03;;;;;;;0.20;0.20;;;2.70;99.90;;;;;;4829369;29;20591;-91
2021/01/08 01:22:29;;;;;;;0.50;0.50;;;2.70;99.90;;;;;;4844922;29;21169;-90
2021/01/08 01:24:55;;;;;;;0.20;0.20;;;2.70;99.90;;;;;;4859446;29;20245;-90
2021/01/08 01:27:21;;;;;;;1.07;0.30;;;2.80;99.90;;;;;;4858647;29;20229;-91
2021/01/08 01:29:47;;;;;;;0.30;0.30;;;2.80;99.90;;;;;;4844326;29;20606;-91
2021/01/08 01:32:14;;;;;;;0.93;0.30;;;2.80;99.90;;;;;;4828885;29;20762;-90
2021/01/08 01:34:40;;;;;;;0.50;0.50;;;2.80;99.90;;;;;;4828391;29;20258;-90
2021/01/08 01:37:05;;;;;;;0.90;0.90;;;2.80;99.90;;;;;;4858362;29;20850;-90
2021/01/08 01:39:31;;;;;;;0.20;0.20;;;2.80;99.90;;;;;;4828126;29;20236;-90
2021/01/08 01:41:57;;;;;;;0.40;0.40;;;2.80;99.90;;;;;;4842236;29;20231;-90
2021/01/08 01:44:23;;;;;;;0.30;0.30;;;2.80;99.90;;;;;;4842496;29;20224;-90
2021/01/08 01:46:48;;;;;;;0.20;0.20;;;2.80;99.90;;;;;;4811007;29;20240;-90
2021/01/08 01:49:14;;;;;;;0.33;0.33;;;2.80;99.90;;;;;;4840955;29;20805;-91
2021/01/08 01:51:40;;;;;;;0.30;0.30;;;2.80;99.90;;;;;;4843178;29;20256;-90
2021/01/08 01:54:08;;;;;;;0.13;0.13;;;2.80;99.90;;;;;;4857769;29;20830;-91
2021/01/08 01:56:34;;;;;;;0.67;0.67;;;2.80;99.90;;;;;;4860761;29;20203;-90
2021/01/08 01:58:59;;;;;;;0.50;0.50;;;2.80;99.90;;;;;;4828776;29;20609;-89
2021/01/08 02:01:25;;;;;;;0.40;0.40;;;2.80;99.90;;;;;;4840506;29;20649;-90
2021/01/08 02:03:56;;;;;;;0.97;0.60;;;2.80;99.90;;;;;;4827418;29;20233;-91
2021/01/08 02:06:31;;;;;;;0.30;0.30;;;2.80;99.90;;;;;;4855712;29;20435;-90
2021/01/08 02:09:02;;;;;;;0.30;0.30;;;2.70;99.90;;;;;;4844370;29;20843;-90
2021/01/08 02:11:32;;;;;;;0.30;0.30;;;2.70;99.90;;;;;;4842886;29;20714;-90
2021/01/08 02:14:23;;;;;;;0.63;0.40;;;2.70;99.90;;;;;;4858496;29;20220;-91
2021/01/08 02:16:50;;;;;;;0.83;0.30;;;2.70;99.90;;;;;;4856136;29;20239;-91
2021/01/08 02:19:42;;;;;;;0.33;0.33;;;2.70;99.90;;;;;;4842531;29;20247;-90
2021/01/08 02:22:17;;;;;;;0.10;0.10;;;2.70;99.90;;;;;;4841532;29;20228;-89
2021/01/08 02:25:10;;;;;;;0.20;0.20;;;2.70;99.90;;;;;;4842240;29;20223;-89
2021/01/08 02:27:38;;;;;;;0.20;0.20;;;2.70;99.90;;;;;;4830288;29;20319;-90
2021/01/08 02:30:05;;;;;;;0.20;0.20;;;2.70;99.90;;;;;;4859873;29;20239;-90
2021/01/08 02:32:31;;;;;;;0.23;0.23;;;2.70;99.90;;;;;;4828232;29;20208;-91
2021/01/08 02:34:57;;;;;;;1.20;0.40;;;2.70;99.90;;;;;;4827609;29;20219;-89
2021/01/08 02:37:23;;;;;;;0.30;0.30;;;2.70;99.90;;;;;;4842191;29;20225;-90
2021/01/08 02:39:49;;;;;;;0.17;0.17;;;2.70;99.90;;;;;;4826474;29;20237;-89
2021/01/08 02:42:17;;;;;;;0.33;0.27;;;2.70;99.90;;;;;;4827955;29;20300;-89
2021/01/08 02:44:43;;;;;;;0.30;0.20;;;2.70;99.90;;;;;;4842291;29;20256;-90
2021/01/08 02:47:08;;;;;;;1.80;1.23;;;2.70;99.90;;;;;;4841600;29;21957;-90
2021/01/08 02:49:34;;;;;;;0.20;0.20;;;2.70;99.90;;;;;;4811653;29;20766;-89
2021/01/08 02:52:05;;;;;;;0.10;0.10;;;2.70;99.90;;;;;;4827044;29;20714;-90
2021/01/08 02:54:32;;;;;;;4.03;0.47;;;2.80;99.90;;;;;;4856775;29;20331;-90
2021/01/08 02:57:01;;;;;;;0.43;0.43;;;2.70;99.90;;;;;;4839181;29;20408;-91
2021/01/08 02:59:28;;;;;;;0.20;0.20;;;2.70;99.90;;;;;;4836219;29;20215;-89
2021/01/08 03:01:54;;;;;;;0.27;0.27;;;2.80;99.90;;;;;;4838473;29;20220;-89
2021/01/08 03:04:20;;;;;;;0.40;0.40;;;2.80;99.90;;;;;;4822333;29;20224;-90
2021/01/08 03:06:46;;;;;;;0.77;0.77;;;2.80;99.90;;;;;;4821911;29;20229;-90
2021/01/08 03:09:15;;;;;;;0.40;0.40;;;2.80;99.90;;;;;;4836817;29;20232;-90
2021/01/08 03:11:50;;;;;;;0.37;0.37;;;2.70;99.90;;;;;;4836610;29;20196;-90
2021/01/08 03:14:16;;;;;;;0.50;0.50;;;2.70;99.90;;;;;;4839821;29;20204;-91
2021/01/08 03:16:42;;;;;;;0.20;0.20;;;2.70;99.90;;;;;;4808700;29;20348;-90
2021/01/08 03:19:07;;;;;;;0.43;0.43;;;2.80;99.90;;;;;;4808451;29;20263;-90
2021/01/08 03:21:33;;;;;;;0.20;0.20;;;2.80;99.90;;;;;;4823845;29;20223;-90
2021/01/08 03:24:01;;;;;;;0.23;0.23;;;2.80;99.90;;;;;;4825312;29;20216;-90
2021/01/08 03:26:27;;;;;;;24.83;0.63;;;2.80;99.90;;;;;;4827654;29;20656;-91
2021/01/08 03:28:52;;;;;;;0.57;0.43;;;2.80;99.90;;;;;;4842671;29;20694;-90
2021/01/08 03:31:18;;;;;;;0.20;0.20;;;2.70;99.90;;;;;;4856278;29;20231;-91
2021/01/08 03:33:44;;;;;;;0.50;0.50;;;2.70;99.90;;;;;;4825082;29;20340;-90
2021/01/08 03:36:10;;;;;;;0.30;0.30;;;2.80;99.90;;;;;;4825910;29;20247;-90
2021/01/08 03:38:35;;;;;;;0.20;0.20;;;2.80;99.90;;;;;;4826065;29;20280;-90
2021/01/08 03:41:01;;;;;;;0.10;0.10;;;2.80;99.90;;;;;;4828946;29;20642;-90
2021/01/08 03:43:27;;;;;;;0.20;0.20;;;2.80;99.90;;;;;;4841644;29;20223;-90
2021/01/08 03:45:53;;;;;;;0.33;0.33;;;2.80;99.90;;;;;;4841753;29;20643;-91
2021/01/08 03:48:18;;;;;;;0.30;0.30;;;2.80;99.90;;;;;;4825112;29;20235;-90
2021/01/08 03:50:44;;;;;;;0.20;0.20;;;2.80;99.90;;;;;;4810986;29;20263;-91
2021/01/08 03:53:10;;;;;;;0.20;0.20;;;2.80;99.90;;;;;;4843552;29;20189;-90
2021/01/08 03:55:36;;;;;;;0.27;0.27;;;2.80;99.90;;;;;;4812142;29;20241;-91
2021/01/08 03:58:02;;;;;;;0.40;0.40;;;2.90;99.90;;;;;;4810935;29;20248;-91
2021/01/08 04:00:27;;;;;;;0.20;0.20;;;2.90;99.90;;;;;;4826481;29;20311;-90
2021/01/08 04:02:53;;;;;;;0.43;0.43;;;3.00;99.90;;;;;;4842476;29;20594;-91
2021/01/08 04:05:19;;;;;;;0.33;0.33;;;3.10;99.90;;;;;;4825914;29;20196;-91
2021/01/08 04:07:44;;;;;;;0.23;0.23;;;3.10;99.90;;;;;;4826528;29;20232;-90
2021/01/08 04:10:10;;;;;;;0.20;0.20;;;3.10;99.90;;;;;;4812484;29;20236;-88
2021/01/08 04:12:36;;;;;;;0.47;0.40;;;3.20;99.90;;;;;;4814062;29;20219;-90
2021/01/08 04:15:03;;;;;;;0.47;0.47;;;3.20;99.90;;;;;;4828698;29;20637;-90
2021/01/08 04:17:28;;;;;;;0.23;0.23;;;3.30;99.90;;;;;;4843181;29;20198;-90
2021/01/08 04:19:54;;;;;;;0.23;0.23;;;3.30;99.90;;;;;;4845639;29;20219;-89
2021/01/08 04:22:20;;;;;;;0.20;0.20;;;3.30;99.90;;;;;;4830135;29;20349;-91
2021/01/08 04:24:46;;;;;;;0.60;0.60;;;3.30;99.90;;;;;;4844919;29;20216;-90
2021/01/08 04:27:11;;;;;;;0.47;0.47;;;3.30;99.90;;;;;;4828165;29;20235;-91
2021/01/08 04:29:37;;;;;;;0.23;0.23;;;3.30;99.90;;;;;;4826976;29;20232;-90
2021/01/08 04:32:03;;;;;;;0.30;0.30;;;3.30;99.90;;;;;;4847001;29;20188;-90
2021/01/08 04:34:29;;;;;;;0.60;0.60;;;3.30;99.90;;;;;;4858460;29;20224;-90
2021/01/08 04:36:55;;;;;;;0.50;0.50;;;3.30;99.90;;;;;;4844395;29;20252;-90
2021/01/08 04:39:20;;;;;;;0.20;0.20;;;3.40;99.90;;;;;;4844290;29;20354;-90
2021/01/08 04:41:46;;;;;;;0.57;0.40;;;3.40;99.90;;;;;;4827514;29;20628;-91
2021/01/08 04:44:12;;;;;;;0.20;0.20;;;3.40;99.90;;;;;;4843384;29;20184;-91
2021/01/08 04:46:41;;;;;;;0.40;0.40;;;3.30;99.90;;;;;;4813396;29;20732;-90
2021/01/08 04:49:07;;;;;;;0.30;0.30;;;3.30;99.90;;;;;;4842357;29;20220;-90
2021/01/08 04:51:36;;;;;;;0.60;0.60;;;3.30;99.90;;;;;;4827711;29;20327;-89
2021/01/08 04:54:03;;;;;;;0.20;0.20;;;3.20;99.90;;;;;;4860447;29;20227;-91
2021/01/08 04:56:37;;;;;;;0.30;0.30;;;3.20;99.90;;;;;;4844309;29;20192;-90
2021/01/08 04:59:02;;;;;;;0.57;0.57;;;3.20;99.90;;;;;;4850354;29;20614;-90
2021/01/08 05:01:29;;;;;;;0.60;0.60;;;3.30;99.90;;;;;;4844571;29;20749;-91
2021/01/08 05:03:56;;;;;;;7.67;0.67;;;3.30;99.90;;;;;;4829200;29;20228;-90
2021/01/08 05:06:21;;;;;;;0.47;0.47;;;3.20;99.90;;;;;;4841400;29;20213;-90
2021/01/08 05:08:47;;;;;;;0.67;0.53;;;3.20;99.90;;;;;;4844341;29;20208;-90
2021/01/08 05:11:23;;;;;;;0.53;0.53;;;3.20;99.90;;;;;;4831581;29;20252;-90
2021/01/08 05:13:57;;;;;;;0.20;0.20;;;3.20;99.90;;;;;;4845566;29;20232;-91
2021/01/08 05:16:27;;;;;;;0.43;0.43;;;3.20;99.90;;;;;;4860045;29;20224;-91
2021/01/08 05:18:54;;;;;;;0.27;0.27;;;3.20;99.90;;;;;;4828247;29;20228;-90
2021/01/08 05:21:20;;;;;;;0.33;0.33;;;3.10;99.90;;;;;;4842450;29;20224;-90
2021/01/08 05:23:49;;;;;;;1.00;0.93;;;3.10;99.90;;;;;;4826748;29;20193;-90
2021/01/08 05:26:15;;;;;;;1.13;1.13;;;3.10;99.90;;;;;;4830436;29;20184;-91
2021/01/08 05:28:51;;;;;;;0.40;0.40;;;3.10;99.90;;;;;;4858057;29;20248;-92
2021/01/08 05:31:18;;;;;;;0.60;0.60;;;3.10;99.90;;;;;;4841478;29;20228;-91
2021/01/08 05:33:44;;;;;;;3.30;1.03;;;3.10;99.90;;;;;;4858752;29;20342;-91
2021/01/08 05:36:12;;;;;;;0.67;0.60;;;3.20;99.90;;;;;;4857370;29;20235;-91
2021/01/08 05:38:47;;;;;;;1.00;0.90;;;3.20;99.90;;;;;;4827513;29;20232;-91
2021/01/08 05:41:12;;;;;;;0.27;0.27;;;3.20;99.90;;;;;;4861597;29;20196;-89
2021/01/08 05:43:43;;;;;;;0.40;0.40;;;3.20;99.90;;;;;;4827332;29;20221;-91
2021/01/08 05:46:13;;;;;;;0.40;0.40;;;3.20;99.90;;;;;;4859283;29;21101;-90
2021/01/08 05:48:41;;;;;;;0.73;0.30;;;3.20;99.90;;;;;;4858381;29;20239;-91
2021/01/08 05:51:08;;;;;;;0.50;0.50;;;3.20;99.90;;;;;;4843190;29;20227;-91
2021/01/08 05:53:34;;;;;;;0.73;0.63;;;3.20;99.90;;;;;;4861487;29;20195;-91
2021/01/08 05:56:00;;;;;;;0.80;0.70;;;3.20;99.90;;;;;;4830291;29;20279;-90
2021/01/08 05:58:28;;;;;;;0.63;0.53;;;3.20;99.90;;;;;;4840802;29;20232;-91
2021/01/08 06:01:04;;;;;;;0.30;0.30;;;3.20;99.90;;;;;;4827392;29;20220;-91
2021/01/08 06:03:30;;;;;;;0.30;0.30;;;3.20;99.90;;;;;;4843641;29;20228;-90
2021/01/08 06:05:58;;;;;;;0.20;0.20;;;3.20;99.90;;;;;;4858892;29;20232;-91
2021/01/08 06:08:59;;;;;;;0.40;0.40;;;3.30;99.90;;;;;;4844283;29;20303;-91
2021/01/08 06:11:28;;;;;;;0.30;0.30;;;3.30;99.90;;;;;;4798188;29;20257;-90
2021/01/08 06:13:56;;;;;;;0.57;0.57;;;3.20;99.90;;;;;;4842456;29;20216;-90
2021/01/08 06:16:22;;;;;;;0.40;0.40;;;3.20;99.90;;;;;;4842717;29;20223;-90
2021/01/08 06:18:50;;;;;;;3.80;0.70;;;3.20;99.90;;;;;;4840773;29;20231;-91
2021/01/08 06:21:17;;;;;;;0.40;0.40;;;3.20;99.90;;;;;;4857968;29;20304;-90
2021/01/08 06:23:48;;;;;;;0.27;0.27;;;3.20;99.90;;;;;;4824792;29;20224;-88
2021/01/08 06:26:19;;;;;;;0.67;0.67;;;3.30;99.90;;;;;;4827999;29;20180;-90
2021/01/08 06:28:47;;;;;;;0.57;0.57;;;3.30;99.90;;;;;;4829983;29;21261;-90
2021/01/08 06:31:25;;;;;;;0.70;0.67;;;3.30;99.90;;;;;;4827388;29;21008;-91
2021/01/08 06:34:02;;;;;;;0.20;0.20;;;3.20;99.90;;;;;;4840264;29;20686;-90
2021/01/08 06:36:34;;;;;;;0.40;0.40;;;3.30;99.90;;;;;;4827288;29;20220;-90
2021/01/08 06:39:11;;;;;;;0.83;0.50;;;3.20;99.90;;;;;;4840113;29;20330;-90
2021/01/08 06:41:39;;;;;;;0.60;0.60;;;3.20;99.90;;;;;;4841935;29;20231;-89
2021/01/08 06:44:06;;;;;;;2.70;1.17;;;3.20;99.90;;;;;;4858850;29;20677;-90
2021/01/08 06:46:36;;;;;;;0.70;0.70;;;3.20;99.90;;;;;;4842971;29;20231;-90
2021/01/08 06:49:11;;;;;;;0.33;0.33;;;3.20;99.90;;;;;;4856223;29;20215;-89
2021/01/08 06:51:38;;;;;;;0.37;0.37;;;3.10;99.90;;;;;;4855618;29;20307;-87
2021/01/08 06:54:09;;;;;;;0.40;0.40;;;3.10;99.90;;;;;;4824174;29;20698;-87
2021/01/08 06:56:45;;;;;;;5.10;0.63;;;3.10;99.90;;;;;;4839316;29;20212;-88
2021/01/08 06:59:17;;;;;;;0.23;0.23;;;3.00;99.90;;;;;;4826740;29;20282;-88
2021/01/08 07:01:53;;;;;;;0.83;0.60;;;3.00;99.90;;;;;;4825106;29;20233;-88
2021/01/08 07:04:23;;;;;;;0.30;0.30;;;3.00;99.90;;;;;;4840777;29;20223;-88
2021/01/08 07:06:49;;;;;;;0.33;0.33;;;3.00;99.90;;;;;;4840362;29;20240;-88
2021/01/08 07:09:15;;;;;;;0.60;0.60;;;3.00;99.90;;;;;;4840105;29;20242;-88
2021/01/08 07:11:41;;;;;;;0.23;0.23;;;3.00;99.90;;;;;;4809762;29;20216;-88
2021/01/08 07:14:21;;;;;;;0.30;0.30;;;3.00;99.90;;;;;;4857220;29;20215;-88
2021/01/08 07:16:49;;;;;;;0.53;0.53;;;3.00;99.90;;;;;;4825527;29;20263;-89
2021/01/08 07:19:19;;;;;;;0.73;0.73;;;3.10;99.90;;;;;;4825871;29;20231;-87
2021/01/08 07:21:52;;;;;;;1.27;0.83;;;3.10;99.90;;;;;;4839949;29;20280;-88
2021/01/08 07:24:33;;;;;;;0.20;0.20;;;3.10;99.90;;;;;;4839622;29;20228;-88
2021/01/08 07:27:19;;;;;;;0.50;0.50;;;3.00;99.90;;;;;;4840536;29;20262;-88
2021/01/08 07:29:55;;;;;;;0.73;0.73;;;3.10;99.90;;;;;;4841989;29;20197;-86
2021/01/08 07:32:33;;;;;;;0.53;0.53;;;3.00;99.90;;;;;;4840615;29;20225;-87
2021/01/08 07:35:16;;;;;;;0.47;0.43;;;3.00;99.90;;;;;;4840093;29;20234;-86
2021/01/08 07:38:00;;;;;;;0.47;0.47;;;2.90;99.90;;;;;;4839945;29;20749;-89
2021/01/08 07:40:34;;;;;;;0.33;0.33;;;2.90;99.90;;;;;;4838431;29;20380;-87
2021/01/08 07:43:01;;;;;;;0.67;0.67;;;2.90;99.90;;;;;;4838321;29;20226;-89
2021/01/08 07:45:47;;;;;;;0.60;0.60;;;2.90;99.90;;;;;;4837753;29;20217;-91
2021/01/08 07:48:25;;;;;;;0.50;0.50;;;3.00;99.90;;;;;;4840089;29;20240;-90
2021/01/08 07:50:56;;;;;;;0.60;0.50;;;3.00;99.90;;;;;;4842809;29;20220;-89
2021/01/08 07:53:40;;;;;;;0.77;0.77;;;3.00;99.90;;;;;;4827489;29;20186;-89
2021/01/08 07:56:07;;;;;;;0.63;0.63;;;3.00;99.90;;;;;;4824473;29;20828;-90
2021/01/08 07:58:34;;;;;;;0.73;0.73;;;3.00;99.90;;;;;;4823701;29;20232;-90
2021/01/08 08:01:02;;;;;;;0.60;0.60;;;3.00;99.90;;;;;;4842302;29;20305;-90
2021/01/08 08:03:28;;;;;;;0.20;0.20;;;2.90;99.90;;;;;;4827670;29;20225;-91
2021/01/08 08:05:54;;;;;;;1.07;0.80;;;2.90;99.90;;;;;;4811004;29;20245;-89
2021/01/08 08:08:20;;;;;;;0.70;0.70;;;2.90;99.90;;;;;;4828152;29;20340;-87
2021/01/08 08:10:46;;;;;;;0.70;0.50;;;2.90;99.90;;;;;;4843429;29;20251;-89
2021/01/08 08:13:13;;;;;;;0.60;0.60;;;2.90;99.90;;;;;;4825821;29;20233;-88
2021/01/08 08:15:49;;;;;;;0.83;0.83;;;2.80;99.90;;;;;;4822105;29;20253;-91
2021/01/08 08:18:15;;;;;;;5.70;0.63;;;2.80;99.90;;;;;;4822901;29;20239;-92
2021/01/08 08:20:41;;;;;;;0.57;0.57;;;2.80;99.90;;;;;;4818765;29;20201;-91
2021/01/08 08:23:17;;;;;;;0.40;0.40;;;2.70;99.90;;;;;;4836246;29;20209;-92
2021/01/08 08:25:44;;;;;;;0.50;0.50;;;2.70;99.90;;;;;;4791722;29;20279;-90
2021/01/08 08:28:10;;;;;;;0.43;0.43;;;2.60;99.90;;;;;;4836604;29;20239;-92
2021/01/08 08:30:37;;;;;;;0.50;0.50;;;2.60;99.90;;;;;;4821022;29;20227;-89
2021/01/08 08:33:06;;;;;;;3.27;0.50;;;2.60;99.90;;;;;;4820397;29;20217;-91
2021/01/08 08:35:35;;;;;;;0.50;0.50;;;2.70;99.90;;;;;;4838812;29;20198;-87
2021/01/08 08:38:01;;;;;;;0.90;0.90;;;2.70;99.90;;;;;;4797498;29;20319;-89
2021/01/08 08:40:29;;;;;;;0.37;0.37;;;2.70;99.90;;;;;;4856353;29;20279;-89
2021/01/08 08:42:56;;;;;;;1.03;1.03;;;2.80;99.90;;;;;;4826098;29;20281;-90
2021/01/08 08:45:25;;;;;;;0.80;0.73;;;2.90;99.90;;;;;;4843465;29;20221;-87
2021/01/08 08:47:53;;;;;;;0.47;0.47;;;3.00;99.90;;;;;;4857903;29;20258;-86
2021/01/08 08:50:20;;;;;;;0.63;0.63;;;3.00;99.90;;;;;;4843345;29;20267;-88
2021/01/08 08:52:46;;;;;;;1.10;0.73;;;3.10;99.90;;;;;;4841514;29;20343;-89
2021/01/08 08:55:25;;;;;;;0.30;0.30;;;3.20;99.90;;;;;;4839914;29;20627;-87
2021/01/08 08:58:10;;;;;;;1.10;1.10;;;3.20;99.90;;;;;;4855913;29;20238;-87
2021/01/08 09:00:37;;;;;;;1.13;1.13;;;3.30;99.90;;;;;;4841123;29;20236;-86
2021/01/08 09:03:20;;;;;;;0.60;0.50;;;3.30;99.90;;;;;;4824459;29;20276;-86
2021/01/08 09:05:48;;;;;;;0.60;0.60;;;3.40;99.90;;;;;;4826479;29;20299;-86
2021/01/08 09:08:32;;;;;;;1.10;1.00;;;3.40;99.90;;;;;;4838455;29;20267;-87
2021/01/08 09:11:29;;;;;;;1.67;0.83;;;3.30;99.90;;;;;;4852994;29;21006;-91
2021/01/08 09:14:01;;;;;;;0.40;0.40;;;3.20;99.90;;;;;;4838109;29;20228;-87
2021/01/08 09:16:45;;;;;;;0.77;0.77;;;3.10;99.90;;;;;;4838498;29;20217;-86
2021/01/08 09:19:19;;;;;;;2.43;1.00;;;2.90;99.90;;;;;;4839049;29;20276;-87
2021/01/08 09:21:51;;;;;;;0.60;0.60;;;3.00;99.90;;;;;;4837903;29;20285;-87
2021/01/08 09:24:32;;;;;;;4.53;0.60;;;3.10;99.90;;;;;;4839735;29;20220;-87
2021/01/08 09:27:02;;;;;;;0.73;0.60;;;3.10;99.90;;;;;;4842283;29;20785;-87
2021/01/08 09:29:30;;;;;;;0.60;0.60;;;3.20;99.90;;;;;;4858846;29;21219;-89
2021/01/08 09:31:57;;;;;;;0.40;0.40;;;3.20;99.90;;;;;;4843714;29;20300;-87
2021/01/08 09:34:25;;;;;;;1.30;0.83;;;3.30;99.90;;;;;;4857590;29;20235;-86
2021/01/08 09:36:52;;;;;;;1.20;1.13;;;3.30;99.90;;;;;;4825815;29;20253;-89
2021/01/08 09:39:20;;;;;;;9.03;1.20;;;3.30;99.90;;;;;;4826382;29;20281;-88
2021/01/08 09:41:55;;;;;;;0.50;0.50;;;3.40;99.90;;;;;;4841487;29;20226;-88
2021/01/08 09:44:36;;;;;;;1.53;1.23;;;3.50;99.90;;;;;;4845502;29;20203;-88
2021/01/08 09:47:08;;;;;;;2.60;0.73;;;3.60;99.90;;;;;;4841103;29;20240;-88
2021/01/08 09:49:52;;;;;;;0.70;0.70;;;3.70;99.90;;;;;;4856418;29;20319;-87
2021/01/08 09:52:26;;;;;;;1.10;1.10;;;3.90;99.90;;;;;;4819456;29;20687;-89
2021/01/08 09:54:52;;;;;;;0.70;0.70;;;4.10;99.90;;;;;;4828218;29;20219;-86
2021/01/08 09:57:28;;;;;;;0.63;0.63;;;4.30;99.90;;;;;;4842467;29;20225;-88
2021/01/08 09:59:58;;;;;;;0.80;0.80;;;4.40;99.90;;;;;;4859739;29;20199;-89
2021/01/08 10:02:43;;;;;;;0.43;0.43;;;4.50;99.90;;;;;;4859680;29;20271;-89
2021/01/08 10:05:25;;;;;;;0.60;0.60;;;4.60;99.90;;;;;;4843801;29;20442;-88
2021/01/08 10:07:51;;;;;;;0.57;0.57;;;4.80;99.90;;;;;;4858473;29;20311;-90
2021/01/08 10:10:36;;;;;;;1.03;0.87;;;4.90;99.90;;;;;;4856779;29;20227;-90
2021/01/08 10:13:03;;;;;;;0.70;0.70;;;4.70;99.90;;;;;;4842441;29;20248;-89
2021/01/08 10:15:36;;;;;;;0.80;0.80;;;4.70;99.90;;;;;;4826727;29;20224;-89
2021/01/08 10:18:13;;;;;;;0.97;0.87;;;4.60;99.90;;;;;;4841766;29;20232;-91
2021/01/08 10:20:47;;;;;;;2.10;0.60;;;4.50;99.90;;;;;;4844325;29;20276;-89
2021/01/08 10:23:16;;;;;;;0.80;0.80;;;4.60;99.90;;;;;;4844703;29;20192;-90
2021/01/08 10:25:42;;;;;;;1.50;1.40;;;4.60;99.90;;;;;;4857499;29;20224;-89
2021/01/08 10:28:09;;;;;;;5.20;1.57;;;4.70;99.90;;;;;;4829497;29;20428;-89
2021/01/08 10:30:35;;;;;;;2.00;0.90;;;4.90;99.90;;;;;;4842666;29;20247;-90
2021/01/08 10:33:01;;;;;;;5.00;1.73;;;4.80;99.90;;;;;;4842425;29;21186;-90
2021/01/08 10:35:27;;;;;;;1.17;1.17;;;4.80;99.90;;;;;;4829519;29;20185;-89
2021/01/08 10:37:52;;;;;;;2.40;0.93;;;4.90;99.90;;;;;;4858462;29;20264;-89
2021/01/08 10:40:18;;;;;;;0.80;0.80;;;4.90;99.90;;;;;;4841108;29;20340;-91
2021/01/08 10:42:44;;;;;;;1.27;0.70;;;5.00;99.90;;;;;;4826961;29;20227;-90
2021/01/08 10:45:10;;;;;;;0.43;0.43;;;5.10;99.90;;;;;;4840763;29;21116;-90
2021/01/08 10:47:36;;;;;;;1.23;1.13;;;4.90;99.90;;;;;;4825872;29;20216;-90
2021/01/08 10:50:03;;;;;;;0.67;0.67;;;5.00;99.90;;;;;;4843542;29;20654;-91
2021/01/08 10:52:28;;;;;;;1.83;0.77;;;4.80;99.90;;;;;;4826103;29;20230;-90
2021/01/08 10:54:54;;;;;;;0.67;0.67;;;4.70;99.90;;;;;;4824269;29;20242;-91
2021/01/08 10:57:20;;;;;;;0.67;0.67;;;4.70;99.90;;;;;;4826389;29;20246;-92
2021/01/08 10:59:46;;;;;;;1.70;1.53;;;4.70;99.90;;;;;;4832214;29;20650;-92
2021/01/08 11:02:12;;;;;;;0.40;0.40;;;4.60;99.90;;;;;;4836205;29;20197;-92
2021/01/08 11:04:41;;;;;;;0.50;0.50;;;4.60;99.90;;;;;;4843528;29;20396;-91
2021/01/08 11:07:08;;;;;;;0.80;0.70;;;4.50;99.90;;;;;;4824722;29;20235;-91
2021/01/08 11:09:34;;;;;;;0.37;0.33;;;4.60;99.90;;;;;;4855730;29;20263;-92
2021/01/08 11:12:00;;;;;;;0.83;0.60;;;4.60;99.90;;;;;;4839834;29;20219;-93
2021/01/08 11:14:26;;;;;;;1.23;0.63;;;4.60;99.90;;;;;;4826452;29;20225;-91
2021/01/08 11:16:54;;;;;;;0.57;0.57;;;4.60;99.90;;;;;;4824305;29;20315;-91
2021/01/08 11:19:20;;;;;;;0.73;0.73;;;4.60;99.90;;;;;;4822960;29;20224;-92
2021/01/08 11:21:46;;;;;;;0.87;0.70;;;4.60;99.90;;;;;;4825921;29;20212;-90
2021/01/08 11:24:12;;;;;;;0.60;0.60;;;4.60;99.90;;;;;;4858120;29;20228;-91
2021/01/08 11:26:38;;;;;;;0.40;0.40;;;4.60;99.90;;;;;;4841297;29;20212;-92
2021/01/08 11:29:03;;;;;;;0.37;0.37;;;4.70;99.90;;;;;;4825884;29;20237;-93
2021/01/08 11:31:39;;;;;;;0.73;0.30;;;4.70;99.90;;;;;;4841159;29;20254;-92
2021/01/08 11:34:12;;;;;;;0.37;0.20;;;4.80;99.90;;;;;;4826441;29;20238;-92
2021/01/08 11:36:38;;;;;;;0.63;0.40;;;4.80;99.90;;;;;;4841251;29;20228;-91
2021/01/08 11:39:06;;;;;;;0.53;0.53;;;4.90;99.90;;;;;;4843638;29;20262;-90
2021/01/08 11:41:32;;;;;;;0.57;0.53;;;5.00;99.90;;;;;;4846777;29;20196;-91
2021/01/08 11:43:58;;;;;;;0.30;0.30;;;5.00;99.90;;;;;;4863547;29;20899;-92
2021/01/08 11:46:24;;;;;;;0.30;0.30;;;5.10;99.90;;;;;;4847061;29;20219;-90
2021/01/08 11:48:52;;;;;;;0.77;0.50;;;5.20;99.90;;;;;;4825029;29;20313;-90
2021/01/08 11:51:21;;;;;;;0.37;0.37;;;5.30;99.90;;;;;;4846077;29;20231;-91
2021/01/08 11:53:48;;;;;;;0.70;0.60;;;5.20;99.90;;;;;;4828683;29;20250;-91
2021/01/08 11:56:15;;;;;;;0.30;0.30;;;5.30;99.90;;;;;;4847814;29;20200;-91
2021/01/08 11:58:42;;;;;;;0.40;0.40;;;5.20;99.90;;;;;;4845157;29;21166;-91
2021/01/08 12:01:09;;;;;;;0.67;0.67;;;5.20;99.90;;;;;;4828582;29;20221;-92
2021/01/08 12:03:40;;;;;;;0.37;0.37;;;5.20;99.90;;;;;;4861286;29;20224;-91
2021/01/08 12:06:06;;;;;;;0.30;0.30;;;5.20;99.90;;;;;;4861882;29;20228;-91
2021/01/08 12:08:33;;;;;;;0.30;0.30;;;5.20;99.90;;;;;;4816715;29;20276;-90
2021/01/08 12:11:00;;;;;;;3.70;0.77;;;5.20;99.90;;;;;;4844445;29;20275;-92
2021/01/08 12:13:26;;;;;;;0.57;0.57;;;5.20;99.90;;;;;;4861423;29;20691;-92
2021/01/08 12:15:52;;;;;;;0.53;0.50;;;5.40;99.90;;;;;;4844720;29;20291;-91
2021/01/08 12:18:18;;;;;;;0.37;0.37;;;5.40;99.90;;;;;;4843537;29;20245;-91
2021/01/08 12:20:45;;;;;;;0.70;0.70;;;5.30;99.90;;;;;;4842786;29;20280;-91
2021/01/08 12:23:11;;;;;;;0.30;0.30;;;5.30;99.90;;;;;;4829454;29;20282;-91
2021/01/08 12:25:38;;;;;;;0.90;0.90;;;5.10;99.90;;;;;;4829155;29;20304;-91
2021/01/08 12:28:05;;;;;;;0.87;0.73;;;5.10;99.90;;;;;;4843873;29;20259;-92
2021/01/08 12:30:38;;;;;;;0.67;0.67;;;5.00;99.90;;;;;;4846676;29;20235;-92
2021/01/08 12:33:06;;;;;;;1.10;1.00;;;5.00;99.90;;;;;;4835050;29;20227;-92
2021/01/08 12:35:32;;;;;;;2.93;0.87;;;5.00;99.90;;;;;;4844846;29;20223;-91
2021/01/08 12:37:58;;;;;;;0.50;0.50;;;5.00;99.90;;;;;;4859519;29;20745;-90
2021/01/08 12:40:24;;;;;;;0.57;0.57;;;5.00;99.90;;;;;;4844335;29;20227;-90
2021/01/08 12:42:52;;;;;;;0.30;0.30;;;5.10;99.90;;;;;;4845252;29;20263;-93
2021/01/08 12:45:19;;;;;;;0.60;0.60;;;5.10;99.90;;;;;;4843796;29;20231;-89
2021/01/08 12:47:45;;;;;;;0.30;0.30;;;5.00;99.90;;;;;;4841148;29;20242;-92
2021/01/08 12:50:11;;;;;;;0.53;0.53;;;4.90;99.90;;;;;;4845927;29;20192;-91
2021/01/08 12:52:37;;;;;;;0.40;0.40;;;4.90;99.90;;;;;;4827619;29;20221;-90
2021/01/08 12:55:05;;;;;;;0.40;0.40;;;4.90;99.90;;;;;;4842577;29;20312;-91
2021/01/08 12:57:30;;;;;;;1.00;0.83;;;4.80;99.90;;;;;;4842428;29;20600;-91
2021/01/08 12:59:56;;;;;;;0.87;0.87;;;4.90;99.90;;;;;;4843088;29;20220;-90
2021/01/08 13:02:22;;;;;;;0.60;0.60;;;5.00;99.90;;;;;;4829833;29;20662;-91
2021/01/08 13:04:48;;;;;;;0.70;0.70;;;5.00;99.90;;;;;;4858648;29;20284;-90
2021/01/08 13:07:14;;;;;;;1.27;0.40;;;5.00;99.90;;;;;;4845680;29;20232;-91